Time;durP1;ratioP1;P1;durP2;ratioP2;P2;SDS_P1;SDS_P2;PMS_P1;PMS_P2;Temp;Humidity;BMP_temperature;BMP_pressure;BME280_temperature;BME280_humidity;BME280_pressure;Samples;Min_cycle;Max_cycle;Signal;HPM_P1;HPM_P2
2022/03/07 00:00:47;;;;;;;9.07;8.27;;;;;;;;;;5066645;28;24964;-51
2022/03/07 00:03:13;;;;;;;8.20;7.50;;;;;;;;;;5067271;28;24410;-52
2022/03/07 00:05:38;;;;;;;8.20;7.50;;;;;;;;;;5068615;28;24434;-52
2022/03/07 00:08:03;;;;;;;8.70;7.80;;;;;;;;;;5069245;28;24418;-51
2022/03/07 00:10:28;;;;;;;7.60;7.00;;;;;;;;;;5059787;28;24422;-51
2022/03/07 00:12:54;;;;;;;8.80;8.00;;;;;;;;;;5066554;28;24463;-51
2022/03/07 00:15:19;;;;;;;9.30;8.40;;;;;;;;;;5067352;28;24462;-50
2022/03/07 00:17:44;;;;;;;8.70;8.00;;;;;;;;;;5067353;28;24492;-51
2022/03/07 00:20:10;;;;;;;8.35;7.68;;;;;;;;;;5066829;28;24471;-51
2022/03/07 00:22:35;;;;;;;8.67;7.97;;;;;;;;;;5066618;28;24782;-50
2022/03/07 00:25:00;;;;;;;8.40;7.60;;;;;;;;;;5067105;28;24537;-50
2022/03/07 00:27:25;;;;;;;9.73;8.93;;;;;;;;;;5069225;28;24419;-51
2022/03/07 00:29:50;;;;;;;9.32;8.52;;;;;;;;;;5069207;28;24410;-50
2022/03/07 00:32:15;;;;;;;9.70;8.90;;;;;;;;;;5066452;28;24425;-50
2022/03/07 00:34:41;;;;;;;9.03;8.23;;;;;;;;;;5067008;28;24422;-51
2022/03/07 00:37:06;;;;;;;8.67;7.87;;;;;;;;;;5066522;28;24494;-51
2022/03/07 00:39:31;;;;;;;9.43;8.43;;;;;;;;;;5066084;28;24419;-51
2022/03/07 00:41:56;;;;;;;9.17;8.40;;;;;;;;;;5066136;28;24520;-51
2022/03/07 00:44:21;;;;;;;8.87;8.17;;;;;;;;;;5065867;28;24465;-51
2022/03/07 00:46:46;;;;;;;8.80;8.10;;;;;;;;;;5066645;28;24550;-51
2022/03/07 00:49:12;;;;;;;8.20;7.60;;;;;;;;;;5069733;28;24410;-51
2022/03/07 00:51:37;;;;;;;9.33;8.53;;;;;;;;;;5067157;28;24494;-51
2022/03/07 00:54:02;;;;;;;8.60;7.90;;;;;;;;;;5066499;28;24417;-51
2022/03/07 00:56:27;;;;;;;8.60;7.90;;;;;;;;;;5066269;28;24698;-50
2022/03/07 00:58:52;;;;;;;8.80;8.10;;;;;;;;;;5066561;28;24426;-50
2022/03/07 01:01:18;;;;;;;9.32;8.43;;;;;;;;;;5065966;28;24442;-50
2022/03/07 01:03:43;;;;;;;9.30;8.40;;;;;;;;;;5066473;28;24465;-51
2022/03/07 01:06:08;;;;;;;8.70;7.90;;;;;;;;;;5072578;28;24410;-50
2022/03/07 01:08:33;;;;;;;8.27;7.50;;;;;;;;;;5066033;28;24526;-50
2022/03/07 01:10:58;;;;;;;8.50;7.80;;;;;;;;;;5064532;28;24407;-50
2022/03/07 01:13:25;;;;;;;7.97;7.37;;;;;;;;;;5068472;28;24410;-50
2022/03/07 01:15:50;;;;;;;9.30;8.50;;;;;;;;;;5069069;28;24480;-49
2022/03/07 01:18:15;;;;;;;8.80;8.10;;;;;;;;;;5069881;28;24418;-50
2022/03/07 01:20:41;;;;;;;8.17;7.47;;;;;;;;;;5067116;28;24506;-51
2022/03/07 01:23:06;;;;;;;8.70;8.00;;;;;;;;;;5064104;28;24446;-50
2022/03/07 01:25:31;;;;;;;8.70;7.90;;;;;;;;;;5066297;28;24544;-50
2022/03/07 01:27:57;;;;;;;9.27;8.47;;;;;;;;;;5066394;28;24984;-50
2022/03/07 01:30:22;;;;;;;8.67;7.97;;;;;;;;;;5069427;28;24411;-51
2022/03/07 01:32:47;;;;;;;8.45;7.78;;;;;;;;;;5068081;28;24415;-50
2022/03/07 01:35:12;;;;;;;8.70;7.90;;;;;;;;;;5066468;28;24586;-50
2022/03/07 01:37:37;;;;;;;8.73;8.00;;;;;;;;;;5066326;28;24773;-50
2022/03/07 01:40:03;;;;;;;8.00;7.40;;;;;;;;;;5066053;28;24964;-50
2022/03/07 01:42:28;;;;;;;7.63;6.97;;;;;;;;;;5063528;28;24454;-51
2022/03/07 01:44:53;;;;;;;7.82;7.22;;;;;;;;;;5069459;28;24427;-51
2022/03/07 01:47:19;;;;;;;8.50;7.90;;;;;;;;;;5065782;28;24888;-50
2022/03/07 01:49:44;;;;;;;7.60;7.05;;;;;;;;;;5069519;28;24496;-52
2022/03/07 01:52:09;;;;;;;7.97;7.37;;;;;;;;;;5069127;28;24430;-51
2022/03/07 01:54:34;;;;;;;8.02;7.43;;;;;;;;;;5069463;28;24430;-51
2022/03/07 01:56:59;;;;;;;7.07;6.47;;;;;;;;;;5075861;28;24418;-51
2022/03/07 01:59:26;;;;;;;8.10;7.40;;;;;;;;;;5070470;28;24505;-51
2022/03/07 02:01:51;;;;;;;7.40;6.80;;;;;;;;;;5069728;28;24480;-52
2022/03/07 02:04:16;;;;;;;8.00;7.30;;;;;;;;;;5068820;28;24597;-51
2022/03/07 02:06:42;;;;;;;6.90;6.30;;;;;;;;;;5069784;28;24410;-51
2022/03/07 02:09:08;;;;;;;7.80;7.10;;;;;;;;;;5069057;28;24415;-52
2022/03/07 02:11:33;;;;;;;7.90;7.20;;;;;;;;;;5070432;28;24528;-52
2022/03/07 02:14:09;;;;;;;7.47;6.87;;;;;;;;;;5069180;28;24781;-52
2022/03/07 02:16:34;;;;;;;8.00;7.30;;;;;;;;;;5068933;28;24483;-51
2022/03/07 02:18:59;;;;;;;8.10;7.40;;;;;;;;;;5069038;28;25039;-51
2022/03/07 02:21:24;;;;;;;7.72;7.03;;;;;;;;;;5069118;28;24429;-51
2022/03/07 02:23:49;;;;;;;8.30;7.50;;;;;;;;;;5068244;28;24434;-52
2022/03/07 02:26:16;;;;;;;7.93;7.22;;;;;;;;;;5068990;28;25341;-51
2022/03/07 02:28:42;;;;;;;8.40;7.70;;;;;;;;;;5069306;28;24998;-51
2022/03/07 02:31:07;;;;;;;7.85;7.25;;;;;;;;;;5069265;28;24508;-51
2022/03/07 02:33:32;;;;;;;8.23;7.53;;;;;;;;;;5068436;28;24853;-51
2022/03/07 02:35:58;;;;;;;8.57;7.87;;;;;;;;;;5069695;28;24418;-51
2022/03/07 02:38:23;;;;;;;7.80;7.10;;;;;;;;;;5069394;28;24407;-50
2022/03/07 02:40:48;;;;;;;7.80;7.10;;;;;;;;;;5069482;28;24410;-50
2022/03/07 02:43:14;;;;;;;7.70;7.10;;;;;;;;;;5062875;28;24459;-50
2022/03/07 02:45:39;;;;;;;7.80;7.10;;;;;;;;;;5068520;28;24439;-51
2022/03/07 02:48:04;;;;;;;6.95;6.25;;;;;;;;;;5069795;28;24450;-51
2022/03/07 02:50:29;;;;;;;7.77;6.97;;;;;;;;;;5068844;28;24936;-51
2022/03/07 02:52:56;;;;;;;8.60;7.90;;;;;;;;;;5069492;28;24426;-51
2022/03/07 02:55:21;;;;;;;7.97;7.27;;;;;;;;;;5067791;28;24407;-51
2022/03/07 02:57:47;;;;;;;8.00;7.30;;;;;;;;;;5070480;28;25029;-51
2022/03/07 03:00:12;;;;;;;8.05;7.45;;;;;;;;;;5068460;28;24457;-51
2022/03/07 03:02:37;;;;;;;8.17;7.37;;;;;;;;;;5067728;28;24478;-51
2022/03/07 03:05:02;;;;;;;8.43;7.73;;;;;;;;;;5067313;28;24426;-50
2022/03/07 03:07:27;;;;;;;8.10;7.40;;;;;;;;;;5067260;28;24979;-51
2022/03/07 03:09:52;;;;;;;8.87;8.17;;;;;;;;;;5067354;28;24523;-51
2022/03/07 03:12:24;;;;;;;8.15;7.55;;;;;;;;;;5067821;28;25358;-51
2022/03/07 03:14:49;;;;;;;8.50;7.80;;;;;;;;;;5068064;28;25041;-51
2022/03/07 03:17:14;;;;;;;7.60;7.00;;;;;;;;;;5070287;28;24426;-51
2022/03/07 03:19:40;;;;;;;8.82;8.02;;;;;;;;;;5068714;28;24783;-51
2022/03/07 03:22:05;;;;;;;7.80;7.20;;;;;;;;;;5069778;28;25056;-51
2022/03/07 03:24:30;;;;;;;7.85;7.10;;;;;;;;;;5076169;28;24423;-50
2022/03/07 03:26:55;;;;;;;8.70;7.90;;;;;;;;;;5072162;28;24483;-50
2022/03/07 03:29:21;;;;;;;8.30;7.60;;;;;;;;;;5069393;28;24441;-51
2022/03/07 03:31:46;;;;;;;8.80;8.10;;;;;;;;;;5071327;28;24415;-50
2022/03/07 03:34:11;;;;;;;8.50;7.70;;;;;;;;;;5068159;28;24476;-50
2022/03/07 03:36:37;;;;;;;9.00;8.20;;;;;;;;;;5080036;28;24429;-50
2022/03/07 03:39:02;;;;;;;8.40;7.70;;;;;;;;;;5069887;28;24422;-50
2022/03/07 03:41:27;;;;;;;8.43;7.73;;;;;;;;;;5068566;28;24454;-51
2022/03/07 03:43:52;;;;;;;9.30;8.50;;;;;;;;;;5080689;28;24421;-50
2022/03/07 03:46:17;;;;;;;9.38;8.57;;;;;;;;;;5070153;28;24421;-50
2022/03/07 03:48:42;;;;;;;9.05;8.30;;;;;;;;;;5080369;28;24807;-50
2022/03/07 03:51:07;;;;;;;8.75;8.00;;;;;;;;;;5086680;28;24414;-50
2022/03/07 03:53:33;;;;;;;8.57;7.78;;;;;;;;;;5067758;28;24473;-50
2022/03/07 03:55:58;;;;;;;9.30;8.40;;;;;;;;;;5077775;28;24406;-50
2022/03/07 03:58:23;;;;;;;8.35;7.65;;;;;;;;;;5081949;28;24494;-50
2022/03/07 04:00:48;;;;;;;8.00;7.30;;;;;;;;;;5088856;28;24408;-50
2022/03/07 04:03:13;;;;;;;8.40;7.70;;;;;;;;;;5072726;28;24449;-50
2022/03/07 04:05:38;;;;;;;9.40;8.50;;;;;;;;;;5069958;28;24430;-50
2022/03/07 04:08:04;;;;;;;9.00;8.20;;;;;;;;;;5068489;28;24506;-50
2022/03/07 04:10:29;;;;;;;8.80;8.10;;;;;;;;;;5065362;28;24995;-50
2022/03/07 04:12:54;;;;;;;9.17;8.20;;;;;;;;;;5067693;28;24472;-50
2022/03/07 04:15:19;;;;;;;8.70;8.00;;;;;;;;;;5067375;28;24421;-50
2022/03/07 04:17:44;;;;;;;9.90;8.90;;;;;;;;;;5067880;28;24509;-49
2022/03/07 04:20:10;;;;;;;9.77;8.87;;;;;;;;;;5068707;28;24484;-50
2022/03/07 04:22:36;;;;;;;9.25;8.43;;;;;;;;;;5072281;28;24982;-50
2022/03/07 04:25:02;;;;;;;8.82;8.13;;;;;;;;;;5069338;28;24884;-50
2022/03/07 04:27:28;;;;;;;8.67;7.87;;;;;;;;;;5069189;28;24947;-50
2022/03/07 04:29:54;;;;;;;9.30;8.50;;;;;;;;;;5077103;28;25029;-50
2022/03/07 04:32:19;;;;;;;9.38;8.48;;;;;;;;;;5087752;28;24981;-50
2022/03/07 04:34:45;;;;;;;8.52;7.72;;;;;;;;;;5069917;28;24489;-50
2022/03/07 04:37:10;;;;;;;9.20;8.30;;;;;;;;;;5069426;28;24985;-50
2022/03/07 04:39:35;;;;;;;8.80;8.00;;;;;;;;;;5073650;28;24459;-51
2022/03/07 04:42:00;;;;;;;8.95;8.05;;;;;;;;;;5065636;28;24541;-50
2022/03/07 04:44:25;;;;;;;8.77;7.97;;;;;;;;;;5052436;28;25041;-51
2022/03/07 04:46:50;;;;;;;9.80;7.68;;;;;;;;;;5066745;28;24492;-50
2022/03/07 04:49:15;;;;;;;9.65;8.48;;;;;;;;;;5067159;28;24442;-50
2022/03/07 04:51:45;;;;;;;8.70;7.90;;;;;;;;;;5073005;28;24952;-50
2022/03/07 04:54:10;;;;;;;8.48;7.78;;;;;;;;;;5087477;28;24421;-50
2022/03/07 04:56:35;;;;;;;8.60;7.80;;;;;;;;;;5087399;28;25018;-51
2022/03/07 04:59:00;;;;;;;8.27;7.57;;;;;;;;;;5087577;28;24515;-51
2022/03/07 05:01:25;;;;;;;8.45;7.65;;;;;;;;;;5079555;28;24426;-50
2022/03/07 05:03:50;;;;;;;8.50;7.70;;;;;;;;;;5085169;28;24947;-50
2022/03/07 05:06:17;;;;;;;8.32;7.63;;;;;;;;;;5080546;28;24450;-50
2022/03/07 05:08:42;;;;;;;8.90;8.00;;;;;;;;;;5075123;28;24417;-50
2022/03/07 05:11:07;;;;;;;8.00;7.30;;;;;;;;;;5067405;28;24411;-50
2022/03/07 05:13:33;;;;;;;9.20;8.40;;;;;;;;;;5070230;28;24773;-50
2022/03/07 05:15:58;;;;;;;8.20;7.40;;;;;;;;;;5066253;28;24425;-50
2022/03/07 05:18:23;;;;;;;7.70;7.00;;;;;;;;;;5075401;28;24505;-50
2022/03/07 05:20:48;;;;;;;8.60;7.57;;;;;;;;;;5059116;28;24465;-51
2022/03/07 05:23:13;;;;;;;8.30;7.40;;;;;;;;;;5074458;28;24800;-51
2022/03/07 05:25:38;;;;;;;8.80;8.00;;;;;;;;;;5066087;28;24517;-51
2022/03/07 05:28:04;;;;;;;8.63;7.83;;;;;;;;;;5070920;28;24945;-50
2022/03/07 05:30:29;;;;;;;7.97;7.27;;;;;;;;;;5072547;28;24575;-51
2022/03/07 05:32:55;;;;;;;9.13;8.10;;;;;;;;;;5073156;28;24463;-51
2022/03/07 05:35:21;;;;;;;7.67;6.97;;;;;;;;;;5062489;28;24434;-51
2022/03/07 05:37:47;;;;;;;8.13;7.32;;;;;;;;;;5068210;28;24407;-51
2022/03/07 05:40:13;;;;;;;8.20;7.40;;;;;;;;;;5056561;28;24423;-51
2022/03/07 05:42:38;;;;;;;7.97;7.38;;;;;;;;;;5047242;28;24523;-51
2022/03/07 05:45:05;;;;;;;8.35;7.60;;;;;;;;;;5060449;28;24575;-51
2022/03/07 05:47:30;;;;;;;7.80;7.20;;;;;;;;;;5071142;28;24418;-51
2022/03/07 05:49:56;;;;;;;7.97;7.27;;;;;;;;;;5068403;28;24421;-51
2022/03/07 05:52:21;;;;;;;7.80;7.10;;;;;;;;;;5067597;28;24540;-51
2022/03/07 05:54:46;;;;;;;8.00;6.80;;;;;;;;;;5069819;28;24421;-51
2022/03/07 05:57:11;;;;;;;7.13;6.60;;;;;;;;;;5069317;28;24998;-51
2022/03/07 05:59:36;;;;;;;7.90;7.30;;;;;;;;;;5070139;28;25031;-51
2022/03/07 06:02:02;;;;;;;7.60;6.90;;;;;;;;;;5071347;28;24410;-51
2022/03/07 06:04:27;;;;;;;7.50;6.60;;;;;;;;;;5069422;28;24584;-51
2022/03/07 06:06:52;;;;;;;7.68;6.97;;;;;;;;;;5071588;28;25016;-51
2022/03/07 06:09:17;;;;;;;7.33;6.73;;;;;;;;;;5075600;28;24410;-50
2022/03/07 06:11:42;;;;;;;6.80;6.20;;;;;;;;;;5069499;28;24472;-51
2022/03/07 06:14:08;;;;;;;7.47;6.88;;;;;;;;;;5077407;28;24423;-52
2022/03/07 06:16:33;;;;;;;7.37;6.77;;;;;;;;;;5070621;28;24508;-51
2022/03/07 06:18:58;;;;;;;7.57;6.83;;;;;;;;;;5065309;28;24418;-51
2022/03/07 06:21:23;;;;;;;6.70;6.20;;;;;;;;;;5069729;28;24473;-51
2022/03/07 06:23:48;;;;;;;7.10;6.40;;;;;;;;;;5072304;28;24455;-51
2022/03/07 06:26:14;;;;;;;7.22;6.53;;;;;;;;;;5071216;28;24403;-51
2022/03/07 06:28:39;;;;;;;7.13;6.53;;;;;;;;;;5070728;28;24850;-51
2022/03/07 06:31:04;;;;;;;7.10;6.40;;;;;;;;;;5068446;28;24854;-52
2022/03/07 06:33:29;;;;;;;7.27;6.53;;;;;;;;;;5068621;28;25129;-51
2022/03/07 06:35:54;;;;;;;7.40;6.70;;;;;;;;;;5069805;28;24394;-51
2022/03/07 06:38:19;;;;;;;8.40;7.60;;;;;;;;;;5067667;28;24386;-52
2022/03/07 06:40:45;;;;;;;7.83;7.13;;;;;;;;;;5069445;28;24508;-52
2022/03/07 06:43:10;;;;;;;8.20;7.40;;;;;;;;;;5069303;28;24398;-52
2022/03/07 06:45:35;;;;;;;10.60;8.00;;;;;;;;;;5068897;28;24485;-53
2022/03/07 06:48:00;;;;;;;7.80;7.10;;;;;;;;;;5068731;28;24422;-52
2022/03/07 06:50:27;;;;;;;7.63;6.93;;;;;;;;;;5072529;28;21300;-52
2022/03/07 06:52:53;;;;;;;8.10;7.40;;;;;;;;;;5067814;28;24920;-52
2022/03/07 06:55:18;;;;;;;8.00;7.30;;;;;;;;;;5069429;28;24564;-52
2022/03/07 06:57:43;;;;;;;8.40;7.60;;;;;;;;;;5069169;28;24846;-52
2022/03/07 07:00:10;;;;;;;8.02;6.90;;;;;;;;;;5068453;28;24559;-52
2022/03/07 07:02:35;;;;;;;8.00;7.20;;;;;;;;;;5068546;28;24415;-51
2022/03/07 07:05:02;;;;;;;8.50;7.60;;;;;;;;;;5068836;28;24523;-52
2022/03/07 07:07:28;;;;;;;8.37;7.60;;;;;;;;;;5068877;28;24924;-52
2022/03/07 07:09:53;;;;;;;7.80;7.10;;;;;;;;;;5068333;28;24433;-52
2022/03/07 07:12:18;;;;;;;9.00;8.10;;;;;;;;;;5062193;28;24703;-52
2022/03/07 07:14:43;;;;;;;8.02;7.22;;;;;;;;;;5066007;28;25070;-52
2022/03/07 07:17:08;;;;;;;8.88;7.90;;;;;;;;;;5069220;28;24491;-52
2022/03/07 07:19:33;;;;;;;9.63;7.97;;;;;;;;;;5068927;28;24462;-52
2022/03/07 07:21:59;;;;;;;8.52;7.80;;;;;;;;;;5067989;28;24485;-52
2022/03/07 07:24:24;;;;;;;8.43;7.63;;;;;;;;;;5065129;28;24515;-52
2022/03/07 07:26:49;;;;;;;8.80;8.10;;;;;;;;;;5068928;28;24508;-52
2022/03/07 07:29:14;;;;;;;9.00;8.10;;;;;;;;;;5073720;28;24432;-52
2022/03/07 07:31:39;;;;;;;8.68;7.88;;;;;;;;;;5069316;28;24502;-52
2022/03/07 07:34:04;;;;;;;8.40;7.60;;;;;;;;;;5064209;28;24415;-52
2022/03/07 07:36:30;;;;;;;8.10;7.40;;;;;;;;;;5065733;28;24530;-52
2022/03/07 07:38:55;;;;;;;7.90;7.30;;;;;;;;;;5074991;28;24430;-52
2022/03/07 07:41:20;;;;;;;8.15;7.28;;;;;;;;;;5062625;28;24485;-52
2022/03/07 07:43:45;;;;;;;8.33;7.53;;;;;;;;;;5084009;28;24426;-52
2022/03/07 07:46:10;;;;;;;8.47;7.67;;;;;;;;;;5086132;28;24402;-53
2022/03/07 07:48:36;;;;;;;8.00;7.20;;;;;;;;;;5067294;28;24406;-52
2022/03/07 07:51:01;;;;;;;8.43;7.72;;;;;;;;;;5068172;28;24770;-52
2022/03/07 07:53:26;;;;;;;8.73;7.90;;;;;;;;;;5068213;28;24391;-50
2022/03/07 07:55:51;;;;;;;8.50;7.75;;;;;;;;;;5067664;28;24391;-52
2022/03/07 07:58:16;;;;;;;8.88;7.97;;;;;;;;;;5067371;28;24568;-53
2022/03/07 08:00:41;;;;;;;10.25;7.88;;;;;;;;;;5067667;28;24406;-52
2022/03/07 08:03:07;;;;;;;8.55;7.75;;;;;;;;;;5067842;28;24387;-50
2022/03/07 08:05:33;;;;;;;8.00;7.13;;;;;;;;;;5067308;28;24621;-50
2022/03/07 08:07:58;;;;;;;8.70;7.90;;;;;;;;;;5067297;28;24422;-52
2022/03/07 08:10:23;;;;;;;8.70;7.90;;;;;;;;;;5067989;28;24959;-51
2022/03/07 08:12:48;;;;;;;9.57;8.00;;;;;;;;;;5067499;28;24379;-51
2022/03/07 08:15:13;;;;;;;8.27;7.40;;;;;;;;;;5067124;28;24816;-52
2022/03/07 08:17:41;;;;;;;8.20;7.30;;;;;;;;;;5066812;28;25210;-51
2022/03/07 08:20:07;;;;;;;8.20;7.40;;;;;;;;;;5067869;28;24482;-51
2022/03/07 08:22:32;;;;;;;7.90;7.20;;;;;;;;;;5067192;28;24814;-51
2022/03/07 08:24:57;;;;;;;8.13;7.33;;;;;;;;;;5067288;28;24414;-51
2022/03/07 08:27:22;;;;;;;7.93;7.13;;;;;;;;;;5067375;28;24395;-52
2022/03/07 08:29:47;;;;;;;7.97;7.28;;;;;;;;;;5066577;28;25007;-51
2022/03/07 08:32:12;;;;;;;7.90;7.20;;;;;;;;;;5067565;28;24477;-51
2022/03/07 08:34:38;;;;;;;8.52;7.68;;;;;;;;;;5067330;28;24952;-52
2022/03/07 08:37:03;;;;;;;7.83;7.13;;;;;;;;;;5067202;28;24445;-52
2022/03/07 08:39:28;;;;;;;7.87;7.17;;;;;;;;;;5067447;28;25300;-51
2022/03/07 08:41:53;;;;;;;8.10;7.40;;;;;;;;;;5066252;28;25061;-50
2022/03/07 08:44:18;;;;;;;7.80;7.10;;;;;;;;;;5067034;28;24521;-51
2022/03/07 08:46:43;;;;;;;7.68;7.05;;;;;;;;;;5065079;28;24395;-51
2022/03/07 08:49:09;;;;;;;7.60;6.90;;;;;;;;;;5067491;28;25241;-52
2022/03/07 08:51:34;;;;;;;9.40;6.87;;;;;;;;;;5066852;28;24446;-51
2022/03/07 08:53:59;;;;;;;8.05;7.25;;;;;;;;;;5066801;28;24401;-51
2022/03/07 08:56:24;;;;;;;8.90;8.00;;;;;;;;;;5066870;28;24938;-50
2022/03/07 08:58:49;;;;;;;8.63;7.63;;;;;;;;;;5066840;28;24430;-51
2022/03/07 09:01:16;;;;;;;8.13;7.13;;;;;;;;;;5065934;28;24496;-52
2022/03/07 09:03:41;;;;;;;8.00;7.20;;;;;;;;;;5067168;28;24383;-51
2022/03/07 09:06:07;;;;;;;7.70;7.00;;;;;;;;;;5064459;28;24979;-51
2022/03/07 09:08:32;;;;;;;8.40;7.60;;;;;;;;;;5067100;28;24482;-52
2022/03/07 09:10:58;;;;;;;7.70;7.00;;;;;;;;;;5066891;28;24456;-52
2022/03/07 09:13:23;;;;;;;7.63;6.90;;;;;;;;;;5066722;28;24406;-51
2022/03/07 09:15:49;;;;;;;7.10;6.50;;;;;;;;;;5066146;28;25033;-51
2022/03/07 09:18:14;;;;;;;7.70;7.00;;;;;;;;;;5067043;28;24433;-51
2022/03/07 09:20:39;;;;;;;7.90;7.10;;;;;;;;;;5067019;28;24921;-52
2022/03/07 09:23:04;;;;;;;7.23;6.60;;;;;;;;;;5066730;28;24382;-51
2022/03/07 09:25:30;;;;;;;8.10;7.30;;;;;;;;;;5066460;28;24956;-52
2022/03/07 09:27:55;;;;;;;7.70;7.00;;;;;;;;;;5066931;28;24403;-52
2022/03/07 09:30:20;;;;;;;7.90;7.10;;;;;;;;;;5066598;28;24990;-52
2022/03/07 09:32:45;;;;;;;8.10;7.28;;;;;;;;;;5066568;28;24979;-52
2022/03/07 09:35:10;;;;;;;8.03;7.00;;;;;;;;;;5065956;28;24506;-52
2022/03/07 09:37:35;;;;;;;8.07;7.37;;;;;;;;;;5066504;28;24382;-53
2022/03/07 09:40:01;;;;;;;8.13;7.43;;;;;;;;;;5066816;28;24449;-52
2022/03/07 09:42:26;;;;;;;9.10;6.80;;;;;;;;;;5066398;28;24442;-52
2022/03/07 09:44:52;;;;;;;7.80;7.10;;;;;;;;;;5065447;28;24488;-51
2022/03/07 09:47:18;;;;;;;7.90;7.20;;;;;;;;;;5066527;28;25000;-52
2022/03/07 09:49:44;;;;;;;7.40;6.70;;;;;;;;;;5066502;28;24401;-50
2022/03/07 09:52:11;;;;;;;8.02;7.25;;;;;;;;;;5066567;28;24484;-52
2022/03/07 09:54:36;;;;;;;7.03;6.43;;;;;;;;;;5066474;28;24984;-51
2022/03/07 09:57:01;;;;;;;7.33;6.50;;;;;;;;;;5065488;28;24434;-52
2022/03/07 09:59:27;;;;;;;7.10;6.40;;;;;;;;;;5066346;28;24959;-52
2022/03/07 10:02:03;;;;;;;7.72;6.60;;;;;;;;;;5066633;28;25167;-53
2022/03/07 10:04:29;;;;;;;7.65;6.95;;;;;;;;;;5066270;28;24426;-51
2022/03/07 10:06:54;;;;;;;6.90;6.10;;;;;;;;;;5065570;28;24414;-52
2022/03/07 10:09:20;;;;;;;6.75;6.15;;;;;;;;;;5066299;28;24418;-52
2022/03/07 10:11:52;;;;;;;7.50;6.75;;;;;;;;;;5067253;28;24875;-52
2022/03/07 10:14:17;;;;;;;8.20;7.40;;;;;;;;;;5069924;28;24414;-52
2022/03/07 10:16:43;;;;;;;7.40;6.70;;;;;;;;;;5069658;28;24777;-52
2022/03/07 10:19:10;;;;;;;7.20;6.60;;;;;;;;;;5069564;28;24880;-52
2022/03/07 10:21:36;;;;;;;7.30;6.60;;;;;;;;;;5069535;28;24434;-53
2022/03/07 10:24:01;;;;;;;7.80;7.00;;;;;;;;;;5069615;28;24398;-52
2022/03/07 10:26:32;;;;;;;7.10;6.50;;;;;;;;;;5069703;28;24433;-52
2022/03/07 10:28:58;;;;;;;7.72;7.03;;;;;;;;;;5069729;28;24749;-51
2022/03/07 10:31:24;;;;;;;7.50;6.80;;;;;;;;;;5069445;28;24974;-52
2022/03/07 10:34:01;;;;;;;8.70;6.75;;;;;;;;;;5069664;28;24483;-52
2022/03/07 10:36:40;;;;;;;6.60;6.00;;;;;;;;;;5069352;28;24430;-51
2022/03/07 10:39:12;;;;;;;6.78;6.18;;;;;;;;;;5051401;28;24395;-51
2022/03/07 10:41:42;;;;;;;6.77;6.17;;;;;;;;;;5069138;28;25310;-52
2022/03/07 10:44:08;;;;;;;7.20;6.53;;;;;;;;;;5069224;28;24426;-52
2022/03/07 10:46:34;;;;;;;7.40;6.70;;;;;;;;;;5069267;28;24842;-52
2022/03/07 10:48:59;;;;;;;6.90;6.30;;;;;;;;;;5069080;28;24421;-51
2022/03/07 10:51:27;;;;;;;8.23;6.63;;;;;;;;;;5069352;28;24399;-52
2022/03/07 10:53:53;;;;;;;6.10;5.60;;;;;;;;;;5069068;28;24529;-51
2022/03/07 10:56:21;;;;;;;7.05;6.40;;;;;;;;;;5069034;28;24490;-51
2022/03/07 10:58:53;;;;;;;7.63;6.93;;;;;;;;;;5069316;28;24406;-50
2022/03/07 11:01:27;;;;;;;7.40;6.60;;;;;;;;;;5069281;28;24919;-52
2022/03/07 11:03:52;;;;;;;6.60;6.00;;;;;;;;;;5068677;28;24415;-52
2022/03/07 11:06:17;;;;;;;8.00;7.20;;;;;;;;;;5068823;28;25009;-53
2022/03/07 11:08:44;;;;;;;8.70;7.37;;;;;;;;;;5069342;28;24398;-53
2022/03/07 11:11:09;;;;;;;8.70;7.80;;;;;;;;;;5069229;28;24463;-52
2022/03/07 11:13:35;;;;;;;7.60;6.90;;;;;;;;;;5068172;28;24418;-52
2022/03/07 11:16:01;;;;;;;7.70;6.90;;;;;;;;;;5068865;28;24409;-53
2022/03/07 11:18:27;;;;;;;7.88;7.05;;;;;;;;;;5068874;28;24460;-52
2022/03/07 11:20:56;;;;;;;7.80;7.00;;;;;;;;;;5069092;28;24403;-52
2022/03/07 11:23:22;;;;;;;7.90;7.20;;;;;;;;;;5067877;28;24394;-52
2022/03/07 11:25:54;;;;;;;8.67;7.70;;;;;;;;;;5068114;28;24427;-52
2022/03/07 11:28:24;;;;;;;8.63;7.28;;;;;;;;;;5068707;28;24387;-52
2022/03/07 11:30:49;;;;;;;7.82;7.13;;;;;;;;;;5069028;28;24417;-51
2022/03/07 11:33:16;;;;;;;8.90;6.90;;;;;;;;;;5068231;28;24395;-52
2022/03/07 11:35:42;;;;;;;8.00;6.90;;;;;;;;;;5068149;28;24418;-52
2022/03/07 11:38:11;;;;;;;7.45;6.75;;;;;;;;;;5068212;28;24399;-52
2022/03/07 11:40:52;;;;;;;7.97;7.18;;;;;;;;;;5068180;28;24441;-52
2022/03/07 11:43:18;;;;;;;8.05;6.60;;;;;;;;;;5068269;28;24517;-52
2022/03/07 11:45:44;;;;;;;8.10;7.30;;;;;;;;;;5067514;28;24526;-52
2022/03/07 11:48:12;;;;;;;8.13;7.18;;;;;;;;;;5068613;28;24499;-52
2022/03/07 11:50:38;;;;;;;9.23;8.32;;;;;;;;;;5068208;28;24441;-52
2022/03/07 11:53:03;;;;;;;7.93;7.23;;;;;;;;;;5068308;28;24482;-53
2022/03/07 11:55:29;;;;;;;9.17;7.40;;;;;;;;;;5067709;28;25032;-52
2022/03/07 11:58:01;;;;;;;7.90;7.10;;;;;;;;;;5067776;28;24426;-52
2022/03/07 12:00:32;;;;;;;8.80;7.93;;;;;;;;;;5068135;28;25122;-52
2022/03/07 12:02:58;;;;;;;8.40;7.50;;;;;;;;;;5068059;28;24426;-52
2022/03/07 12:05:25;;;;;;;8.30;7.50;;;;;;;;;;5067900;28;24722;-52
2022/03/07 12:07:51;;;;;;;8.02;7.00;;;;;;;;;;5067144;28;24415;-52
2022/03/07 12:10:16;;;;;;;7.80;7.10;;;;;;;;;;5067522;28;24928;-52
2022/03/07 12:12:41;;;;;;;7.68;6.90;;;;;;;;;;5067293;28;24456;-52
2022/03/07 12:15:07;;;;;;;8.20;7.40;;;;;;;;;;5067714;28;24564;-52
2022/03/07 12:17:33;;;;;;;9.20;8.30;;;;;;;;;;5067095;28;24916;-52
2022/03/07 12:19:58;;;;;;;7.57;6.90;;;;;;;;;;5067548;28;24529;-52
2022/03/07 12:22:24;;;;;;;7.97;7.18;;;;;;;;;;5067573;28;24383;-53
2022/03/07 12:24:52;;;;;;;7.50;6.80;;;;;;;;;;5067431;28;24472;-53
2022/03/07 12:27:17;;;;;;;7.25;6.63;;;;;;;;;;5067281;28;24860;-53
2022/03/07 12:29:43;;;;;;;8.00;6.80;;;;;;;;;;5067012;28;24496;-52
2022/03/07 12:32:09;;;;;;;7.60;6.87;;;;;;;;;;5067388;28;24398;-52
2022/03/07 12:34:35;;;;;;;7.10;6.50;;;;;;;;;;5067275;28;24395;-52
2022/03/07 12:37:02;;;;;;;7.20;5.90;;;;;;;;;;5067031;28;24405;-55
2022/03/07 12:39:28;;;;;;;6.38;5.78;;;;;;;;;;5066899;28;24422;-53
2022/03/07 12:41:58;;;;;;;7.47;6.88;;;;;;;;;;5067063;28;24433;-53
2022/03/07 12:44:23;;;;;;;7.50;6.80;;;;;;;;;;5066764;28;24545;-52
2022/03/07 12:46:48;;;;;;;6.67;6.07;;;;;;;;;;5067673;28;25016;-51
2022/03/07 12:49:16;;;;;;;6.60;6.00;;;;;;;;;;5066698;28;24418;-52
2022/03/07 12:51:41;;;;;;;7.07;6.38;;;;;;;;;;5067438;28;24418;-52
2022/03/07 12:54:06;;;;;;;7.65;6.10;;;;;;;;;;5066940;28;24912;-52
2022/03/07 12:56:36;;;;;;;6.60;6.00;;;;;;;;;;5067061;28;24420;-52
2022/03/07 12:59:02;;;;;;;7.18;6.57;;;;;;;;;;5067086;28;24399;-51
2022/03/07 13:01:28;;;;;;;7.15;6.45;;;;;;;;;;5066325;28;24445;-51
2022/03/07 13:03:54;;;;;;;7.00;6.30;;;;;;;;;;5067197;28;24399;-52
2022/03/07 13:06:23;;;;;;;7.15;6.45;;;;;;;;;;5066739;28;24749;-53
2022/03/07 13:08:50;;;;;;;8.82;6.20;;;;;;;;;;5067025;28;25253;-52
2022/03/07 13:11:15;;;;;;;7.07;6.38;;;;;;;;;;5066327;28;24546;-52
2022/03/07 13:13:44;;;;;;;6.83;5.90;;;;;;;;;;5066746;28;24491;-52
2022/03/07 13:16:09;;;;;;;7.70;6.60;;;;;;;;;;5066604;28;24406;-52
2022/03/07 13:18:35;;;;;;;7.30;6.60;;;;;;;;;;5067258;28;24769;-51
2022/03/07 13:21:00;;;;;;;6.67;5.77;;;;;;;;;;5066413;28;24442;-52
2022/03/07 13:23:28;;;;;;;5.80;5.20;;;;;;;;;;5067059;28;24917;-53
2022/03/07 13:25:53;;;;;;;6.15;5.55;;;;;;;;;;5066957;28;24418;-52
2022/03/07 13:28:28;;;;;;;6.70;6.00;;;;;;;;;;5066216;28;24706;-50
2022/03/07 13:30:53;;;;;;;6.80;6.10;;;;;;;;;;5066514;28;24455;-53
2022/03/07 13:33:19;;;;;;;6.80;6.10;;;;;;;;;;5066432;28;24988;-50
2022/03/07 13:35:44;;;;;;;8.40;6.00;;;;;;;;;;5066607;28;24472;-51
2022/03/07 13:38:17;;;;;;;7.03;6.40;;;;;;;;;;5066334;28;24391;-51
2022/03/07 13:40:42;;;;;;;7.93;7.13;;;;;;;;;;5066702;28;24489;-51
2022/03/07 13:43:08;;;;;;;9.00;8.20;;;;;;;;;;5066262;28;24561;-52
2022/03/07 13:45:34;;;;;;;7.57;6.80;;;;;;;;;;5066629;28;24430;-51
2022/03/07 13:48:01;;;;;;;5.85;5.30;;;;;;;;;;5069260;28;24390;-51
2022/03/07 13:50:26;;;;;;;6.25;5.60;;;;;;;;;;5069714;28;24421;-51
2022/03/07 13:53:04;;;;;;;6.00;5.40;;;;;;;;;;5070466;28;24386;-51
2022/03/07 13:55:36;;;;;;;6.30;5.28;;;;;;;;;;5070150;28;24766;-51
2022/03/07 13:58:03;;;;;;;5.68;5.13;;;;;;;;;;5070093;28;24741;-51
2022/03/07 14:00:29;;;;;;;5.75;5.20;;;;;;;;;;5070324;28;24532;-51
2022/03/07 14:02:55;;;;;;;5.43;4.85;;;;;;;;;;5069813;28;24940;-51
2022/03/07 14:05:21;;;;;;;5.63;5.03;;;;;;;;;;5070269;28;24529;-51
2022/03/07 14:07:47;;;;;;;5.70;5.00;;;;;;;;;;5069926;28;24493;-52
2022/03/07 14:10:13;;;;;;;5.57;5.07;;;;;;;;;;5069937;28;24402;-52
2022/03/07 14:12:40;;;;;;;5.68;4.80;;;;;;;;;;5069660;28;24422;-52
2022/03/07 14:15:06;;;;;;;6.10;5.22;;;;;;;;;;5069886;28;24482;-52
2022/03/07 14:17:32;;;;;;;5.78;5.18;;;;;;;;;;5069734;28;24417;-52
2022/03/07 14:19:58;;;;;;;7.43;5.47;;;;;;;;;;5069433;28;25044;-51
2022/03/07 14:22:24;;;;;;;5.55;4.95;;;;;;;;;;5069637;28;24426;-51
2022/03/07 14:24:50;;;;;;;5.75;5.25;;;;;;;;;;5069985;28;24415;-51
2022/03/07 14:27:16;;;;;;;6.10;5.20;;;;;;;;;;5069425;28;24601;-52
2022/03/07 14:29:43;;;;;;;6.30;5.70;;;;;;;;;;5069730;28;24984;-52
2022/03/07 14:32:08;;;;;;;6.72;5.78;;;;;;;;;;5069430;28;24411;-51
2022/03/07 14:34:33;;;;;;;6.23;5.40;;;;;;;;;;5069284;28;24516;-52